Terminal Aerodrome Forecast
Issued by NWS Missoula, MT

Home | Current Version | Previous Version | Text Only | Print | Product List | Glossary On
Versions: 1 2 3 4 5 6 7 8 9 10 11 12 13 14 15
000
FTUS45 KMSO 071614 AAB
TAFGPI
TAF AMD
KGPI 071614Z 0716/0812 02012KT 3SM -SHRA BR BKN060 OVC110
     FM071800 04010KT P6SM VCSH SCT100=

USA.gov is the U.S. government's official web portal to all federal, state and local government web resources and services.